Terminal Aerodrome Forecast
Issued by NWS

Home | Current Version | Previous Version | Text Only | Print | Product List | Glossary On
Versions: 1 2 3 4 5 6 7 8 9 10 11 12 13 14 15 16 17 18 19 20 21 22 23 24 25 26 27 28 29
000
FTUS41 KGYX 012100 AAC
TAFRKD
TAF AMD
KRKD 012100Z 0121/0218 26010G14KT P6SM VCTS BKN060CB
     FM012130 20010G15KT P6SM SCT060
     FM020600 VRB03KT 1SM BR SCT002 BKN250
     FM021500 16005KT P6SM SKC
      AMD LTD TO CLD VIS AND WIND=

USA.gov is the U.S. government's official web portal to all federal, state and local government web resources and services.